Coffee Creek, MT (59424)

2:00 PM MDT on September 03, 2015 (GMT -0600)
Owen Farm Company | | Change Station
CLOSE
Current Station
Personal Weather Station
Location: Geraldine, MT
Elevation: 3087 ft
Nearby Weather Stations

Elev 3087 ft 47.61 °N, 110.09 °W | Updated 8 seconds ago

Partly Cloudy
Partly Cloudy
67.2 °F
Feels Like 67.2 °F
N
9.8
Wind Variable Wind from NNW
Gusts 17.0 mph

Today
High -- | Low -- °F
--% Chance of Precip.
Yesterday
High -- | Low -- °F
Precip. -- in
6:41 AM 7:56 PM
Waning Gibbous, 67% visible
Pressure 29.81 in
Visibility 10.0 miles
Clouds Clear
Dew Point 38 °F
Humidity 34%
Rainfall 0.00 in
Snow Depth Not available.
UV 8 out of 12
Pollen 7.40 out of 12
Air Quality Not available.
Flu Activity Not available.
METAR KLWT 031954Z AUTO 34005KT 10SM CLR 22/03 A2989 RMK AO2 SLP095 T02220033 TSNO
Pressure 29.81 in
Visibility 10.0 miles
Clouds Clear
Dew Point 38 °F
Humidity 34%
Rainfall 0.00 in
Snow Depth Not available.
UV 8 out of 12
Pollen 7.40 out of 12
Air Quality Not available.
Flu Activity Not available.
METAR KLWT 031954Z AUTO 34005KT 10SM CLR 22/03 A2989 RMK AO2 SLP095 T02220033 TSNO

10-Day Weather Forecast

×

Almanac

Astronomy

Sep. 03, 2015 Rise Set
Actual Time
Civil Twilight
Nautical Twilight
Astronomical Twilight
Moon
Length of Visible Light
Length of Day
Tomorrow will be .
, % of the Moon is Illuminated

Today's Extremes

State Highs State Lows

Community

WunderPhotos

Upload Photos

1,852,019 photos uploaded!

WunderBlogs® & News

Nearby

Air Quality

  Air Quality AQ Index Pollutant
Not available.

Snow Depth

Station Depth Elevation

Earthquake Activity

City Distance Mag. Time & Date
Minimum magnitude displayed is 2.5.

Coastal Water Temperatures

Place Temperature

Stations

Nearby Weather Stations

Station Location Temp. Windchill Dew Point Humidity Wind Precip. Elev Updated Type